createdAt,value
2022-12-18T00:03:34.919Z,79.81
2022-12-18T00:07:36.613Z,79.51
2022-12-18T00:11:38.138Z,79.57
2022-12-18T00:15:40.654Z,79.79
2022-12-18T00:19:42.281Z,79.65
2022-12-18T00:23:45.281Z,79.46
2022-12-18T00:27:46.783Z,79.21
2022-12-18T00:31:48.827Z,79.17
2022-12-18T00:35:50.355Z,78.90
2022-12-18T00:39:51.843Z,78.51
2022-12-18T00:43:54.962Z,78.99
2022-12-18T00:47:57.018Z,78.56
2022-12-18T00:51:58.556Z,78.84
2022-12-18T00:56:00.157Z,78.47
2022-12-18T01:00:02.106Z,78.43
2022-12-18T01:04:04.424Z,78.75
2022-12-18T01:08:05.990Z,78.35
2022-12-18T01:12:07.813Z,78.46
2022-12-18T01:16:09.918Z,77.80
2022-12-18T01:20:13.525Z,77.75
2022-12-18T01:24:15.011Z,77.52
2022-12-18T01:28:16.960Z,77.67
2022-12-18T01:32:18.559Z,77.72
2022-12-18T01:36:23.935Z,77.29
2022-12-18T01:40:25.478Z,77.50
2022-12-18T01:45:04.861Z,77.60
2022-12-18T01:49:06.314Z,77.88
2022-12-18T01:53:15.843Z,77.71
2022-12-18T01:57:17.623Z,77.58
2022-12-18T02:01:19.719Z,78.31
2022-12-18T02:05:36.101Z,78.45
2022-12-18T02:09:47.954Z,78.40
2022-12-18T02:14:17.772Z,77.92
2022-12-18T02:18:24.796Z,77.34
2022-12-18T02:22:55.200Z,77.40
2022-12-18T02:27:01.704Z,77.09
2022-12-18T02:31:08.992Z,76.60
2022-12-18T02:35:17.689Z,76.48
2022-12-18T02:39:22.131Z,76.67
2022-12-18T02:43:34.092Z,76.53
2022-12-18T02:47:39.982Z,76.25
2022-12-18T02:51:57.091Z,74.00
2022-12-18T02:56:20.399Z,73.48
2022-12-18T03:00:38.623Z,73.55
2022-12-18T03:05:18.971Z,74.19
2022-12-18T03:09:36.387Z,73.61
2022-12-18T03:13:51.893Z,73.36
2022-12-18T03:18:00.293Z,73.19
2022-12-18T03:22:07.906Z,72.61
2022-12-18T03:26:23.003Z,72.20
2022-12-18T03:30:32.136Z,72.82
2022-12-18T03:34:37.373Z,72.52
2022-12-18T03:38:42.154Z,73.04
2022-12-18T03:43:04.353Z,72.88
2022-12-18T03:47:28.492Z,73.18
2022-12-18T03:51:51.862Z,73.62
2022-12-18T03:55:54.093Z,74.10
2022-12-18T04:00:01.634Z,73.85
2022-12-18T04:04:17.557Z,73.76
2022-12-18T04:08:21.586Z,74.66
2022-12-18T04:12:31.489Z,75.06
2022-12-18T04:16:33.074Z,75.17
2022-12-18T04:20:38.020Z,75.62
2022-12-18T04:24:39.713Z,75.71
2022-12-18T04:28:51.773Z,76.32
2022-12-18T04:32:53.358Z,76.21
2022-12-18T04:36:56.577Z,76.90
2022-12-18T04:40:58.820Z,76.44
2022-12-18T04:45:02.629Z,76.56
2022-12-18T04:49:04.105Z,76.89
2022-12-18T04:53:05.795Z,77.06
2022-12-18T04:57:07.374Z,77.37
2022-12-18T05:01:09.817Z,77.01
2022-12-18T05:05:11.505Z,77.46
2022-12-18T05:09:13.148Z,77.36
2022-12-18T05:13:14.649Z,76.83
2022-12-18T05:17:16.295Z,76.89
2022-12-18T05:21:17.955Z,76.88
2022-12-18T05:25:20.401Z,76.79
2022-12-18T05:29:22.488Z,76.83
2022-12-18T05:33:26.997Z,76.85
2022-12-18T05:37:28.552Z,76.63
2022-12-18T05:41:30.204Z,77.04
2022-12-18T05:45:31.880Z,76.99
2022-12-18T05:49:33.365Z,77.29
2022-12-18T05:53:36.098Z,76.96
2022-12-18T05:57:37.738Z,76.95
2022-12-18T06:01:39.334Z,76.46
2022-12-18T06:05:44.302Z,76.69
2022-12-18T06:09:45.809Z,76.80
2022-12-18T06:13:53.489Z,77.18
2022-12-18T06:17:57.837Z,77.06
2022-12-18T06:21:59.832Z,77.02
2022-12-18T06:26:10.351Z,76.95
2022-12-18T06:30:13.101Z,76.98
2022-12-18T06:34:15.555Z,76.98
2022-12-18T06:38:17.196Z,76.73
2022-12-18T06:42:18.757Z,76.90
2022-12-18T06:46:20.339Z,77.46
2022-12-18T06:50:21.826Z,77.08
2022-12-18T06:54:23.305Z,77.05
2022-12-18T06:58:25.451Z,76.53
2022-12-18T07:02:27.285Z,77.73
2022-12-18T07:06:28.945Z,77.32
2022-12-18T07:10:30.499Z,76.79
2022-12-18T07:14:32.080Z,76.54
2022-12-18T07:18:33.675Z,76.63
2022-12-18T07:22:35.226Z,76.03
2022-12-18T07:26:36.719Z,76.32
2022-12-18T07:30:39.277Z,74.96
2022-12-18T07:34:40.996Z,73.59
2022-12-18T07:38:43.015Z,70.95
2022-12-18T07:42:44.527Z,67.70
2022-12-18T07:46:46.071Z,64.14
2022-12-18T07:50:47.813Z,62.26
2022-12-18T07:54:50.863Z,58.83
2022-12-18T07:58:52.412Z,56.56
2022-12-18T08:02:54.396Z,55.66
2022-12-18T08:06:56.073Z,52.61
2022-12-18T08:10:58.292Z,51.53
2022-12-18T08:14:59.768Z,49.11
2022-12-18T08:19:01.309Z,46.71
2022-12-18T08:23:02.985Z,45.84
2022-12-18T08:27:28.399Z,44.99
2022-12-18T08:31:27.303Z,43.86
2022-12-18T08:35:34.247Z,43.44
2022-12-18T08:39:37.901Z,42.43
2022-12-18T08:43:58.110Z,41.04
2022-12-18T08:47:59.761Z,38.44
2022-12-18T08:52:01.553Z,36.29
2022-12-18T08:56:04.274Z,35.29
2022-12-18T09:00:06.294Z,34.91
2022-12-18T09:04:09.032Z,34.05
2022-12-18T09:08:10.644Z,34.03
2022-12-18T09:12:12.213Z,34.94
2022-12-18T09:16:13.952Z,33.54
2022-12-18T09:20:15.460Z,33.26
2022-12-18T09:24:18.685Z,31.47
2022-12-18T09:28:20.294Z,30.90
2022-12-18T09:32:22.592Z,30.21
2022-12-18T09:36:24.375Z,32.07
2022-12-18T09:40:29.068Z,31.81
2022-12-18T09:44:43.039Z,33.48
2022-12-18T09:48:51.546Z,31.76
2022-12-18T09:52:57.445Z,32.38
2022-12-18T09:56:59.070Z,32.57
2022-12-18T10:01:00.645Z,30.95
2022-12-18T10:05:15.105Z,31.84
2022-12-18T10:09:32.613Z,32.60
2022-12-18T10:13:40.030Z,32.29
2022-12-18T10:18:02.845Z,32.30
2022-12-18T10:22:27.402Z,32.82
2022-12-18T10:26:32.746Z,32.69
2022-12-18T10:30:34.462Z,33.95
2022-12-18T10:34:36.126Z,31.30
2022-12-18T10:38:38.700Z,32.26
2022-12-18T10:42:42.756Z,30.70
2022-12-18T10:46:48.950Z,29.72
2022-12-18T10:51:10.809Z,26.53
2022-12-18T10:55:17.308Z,28.51
2022-12-18T10:59:19.383Z,25.77
2022-12-18T11:03:32.443Z,26.02
2022-12-18T11:07:50.257Z,26.36
2022-12-18T11:12:04.723Z,27.27
2022-12-18T11:16:06.784Z,27.31
2022-12-18T11:20:24.706Z,27.94
2022-12-18T11:24:37.327Z,26.98
2022-12-18T11:28:43.232Z,27.04
2022-12-18T11:33:04.951Z,27.16
2022-12-18T11:37:06.539Z,26.94
2022-12-18T11:41:17.216Z,27.77
2022-12-18T11:45:26.400Z,26.93
2022-12-18T11:49:34.112Z,27.02
2022-12-18T11:53:38.961Z,27.77
2022-12-18T11:57:46.368Z,29.80
2022-12-18T12:02:00.747Z,26.87
2022-12-18T12:06:27.098Z,27.80
2022-12-18T12:10:35.783Z,25.92
2022-12-18T12:14:52.059Z,26.11
2022-12-18T12:19:15.624Z,27.17
2022-12-18T12:23:40.828Z,27.87
2022-12-18T12:27:57.077Z,28.55
2022-12-18T12:32:08.755Z,27.98
2022-12-18T12:36:30.466Z,26.70
2022-12-18T12:41:00.546Z,25.88
2022-12-18T12:45:01.646Z,26.18
2022-12-18T12:49:05.547Z,28.10
2022-12-18T12:53:10.344Z,28.53
2022-12-18T12:57:22.678Z,32.04
2022-12-18T13:01:38.274Z,36.60
2022-12-18T13:05:52.268Z,36.13
2022-12-18T13:10:23.493Z,38.53
2022-12-18T13:14:38.820Z,38.54
2022-12-18T13:18:50.970Z,39.99
2022-12-18T13:22:52.985Z,42.65
2022-12-18T13:26:55.234Z,46.14
2022-12-18T13:30:58.599Z,47.66
2022-12-18T13:35:18.325Z,47.15
2022-12-18T13:39:28.942Z,47.85
2022-12-18T13:43:44.332Z,49.05
2022-12-18T13:47:46.354Z,48.11
2022-12-18T13:51:50.283Z,48.47
2022-12-18T13:55:52.775Z,50.64
2022-12-18T13:59:55.486Z,54.04
2022-12-18T14:04:20.061Z,55.50
2022-12-18T14:08:22.145Z,57.70
2022-12-18T14:12:46.272Z,58.58
2022-12-18T14:16:49.923Z,60.31
2022-12-18T14:20:55.849Z,61.53
2022-12-18T14:25:17.801Z,61.25
2022-12-18T14:29:27.732Z,61.79
2022-12-18T14:33:29.271Z,62.72
2022-12-18T14:37:30.900Z,63.63
2022-12-18T14:41:33.967Z,64.25
2022-12-18T14:45:47.041Z,65.65
2022-12-18T14:49:49.360Z,66.61
2022-12-18T14:54:08.765Z,66.81
2022-12-18T14:58:16.641Z,67.15
2022-12-18T15:02:24.244Z,67.14
2022-12-18T15:06:35.653Z,67.69
2022-12-18T15:10:48.279Z,68.13
2022-12-18T15:14:50.120Z,69.14
2022-12-18T15:18:54.158Z,68.76
2022-12-18T15:22:55.977Z,69.13
2022-12-18T15:26:58.075Z,69.61
2022-12-18T15:31:25.627Z,69.84
2022-12-18T15:35:27.533Z,70.08
2022-12-18T15:39:29.199Z,70.14
2022-12-18T15:43:34.645Z,70.67
2022-12-18T15:47:36.285Z,70.71
2022-12-18T15:51:39.034Z,70.61
2022-12-18T15:56:01.306Z,71.25
2022-12-18T16:00:03.793Z,71.15
2022-12-18T16:04:06.933Z,71.60
2022-12-18T16:08:08.545Z,71.51
2022-12-18T16:12:22.804Z,71.53
2022-12-18T16:16:24.377Z,71.47
2022-12-18T16:20:27.204Z,71.73
2022-12-18T16:24:31.227Z,72.05
2022-12-18T16:28:32.747Z,72.22
2022-12-18T16:32:34.216Z,72.10
2022-12-18T16:36:35.720Z,71.92
2022-12-18T16:40:58.884Z,72.31
2022-12-18T16:45:00.611Z,72.80
2022-12-18T16:49:02.190Z,72.18
2022-12-18T16:53:03.744Z,72.09
2022-12-18T16:57:05.710Z,72.12
2022-12-18T17:01:11.814Z,72.41
2022-12-18T17:05:13.501Z,72.34
2022-12-18T17:09:22.237Z,72.93
2022-12-18T17:13:27.413Z,72.57
2022-12-18T17:17:28.934Z,72.33
2022-12-18T17:21:30.846Z,72.30
2022-12-18T17:25:32.548Z,72.95
2022-12-18T17:29:34.551Z,73.03
2022-12-18T17:33:36.443Z,72.98
2022-12-18T17:37:41.603Z,73.38
2022-12-18T17:41:43.337Z,73.50
2022-12-18T17:45:45.252Z,72.76
2022-12-18T17:49:46.823Z,72.92
2022-12-18T17:53:48.802Z,73.56
2022-12-18T17:57:50.443Z,73.19
2022-12-18T18:01:52.418Z,72.73
2022-12-18T18:06:01.590Z,72.73
2022-12-18T18:10:04.348Z,72.59
2022-12-18T18:14:11.367Z,72.84
2022-12-18T18:18:13.698Z,72.40
2022-12-18T18:22:16.839Z,72.39
2022-12-18T18:26:19.935Z,72.22
2022-12-18T18:30:22.386Z,71.70
2022-12-18T18:34:28.106Z,71.29
2022-12-18T18:38:29.781Z,71.37
2022-12-18T18:42:31.451Z,71.44
2022-12-18T18:46:33.425Z,71.50
2022-12-18T18:50:35.209Z,71.52
2022-12-18T18:54:36.832Z,71.23
2022-12-18T18:58:38.583Z,71.79
2022-12-18T19:02:40.385Z,71.39
2022-12-18T19:06:42.642Z,71.36
2022-12-18T19:10:44.592Z,72.05
